Time;durP1;ratioP1;P1;durP2;ratioP2;P2;SDS_P1;SDS_P2;PMS_P1;PMS_P2;Temp;Humidity;BMP_temperature;BMP_pressure;BME280_temperature;BME280_humidity;BME280_pressure;Samples;Min_cycle;Max_cycle;Signal;HPM_P1;HPM_P2
2021/09/19 00:00:09;;;;;;;;;;;;;;;;;;2087168;28;20020;-57
2021/09/19 00:01:10;;;;;;;;;;;;;;;;;;2089518;28;19932;-58
2021/09/19 00:02:11;;;;;;;;;;;;;;;;;;2089538;28;19928;-57
2021/09/19 00:03:12;;;;;;;;;;;;;;;;;;2087119;28;19921;-58
2021/09/19 00:04:13;;;;;;;;;;;;;;;;;;2089612;28;19920;-58
2021/09/19 00:05:14;;;;;;;;;;;;;;;;;;2089020;28;19990;-58
2021/09/19 00:06:15;;;;;;;;;;;;;;;;;;2087462;28;19928;-58
2021/09/19 00:07:16;;;;;;;;;;;;;;;;;;2089690;28;19921;-58
2021/09/19 00:08:16;;;;;;;;;;;;;;;;;;2089192;28;20294;-58
2021/09/19 00:09:17;;;;;;;;;;;;;;;;;;2088328;28;19925;-58
2021/09/19 00:10:18;;;;;;;;;;;;;;;;;;2090896;28;19928;-58
2021/09/19 00:11:19;;;;;;;;;;;;;;;;;;2090431;28;19920;-58
2021/09/19 00:12:20;;;;;;;;;;;;;;;;;;2087335;28;19932;-58
2021/09/19 00:13:21;;;;;;;;;;;;;;;;;;2082755;28;20298;-58
2021/09/19 00:14:21;;;;;;;;;;;;;;;;;;2084420;28;19921;-58
2021/09/19 00:15:22;;;;;;;;;;;;;;;;;;2089094;28;20366;-58
2021/09/19 00:16:23;;;;;;;;;;;;;;;;;;2091078;28;19920;-58
2021/09/19 00:17:24;;;;;;;;;;;;;;;;;;2090205;28;19978;-58
2021/09/19 00:18:25;;;;;;;;;;;;;;;;;;2089478;28;20389;-57
2021/09/19 00:19:26;;;;;;;;;;;;;;;;;;2090962;28;19920;-57
2021/09/19 00:20:26;;;;;;;;;;;;;;;;;;2089991;28;19925;-57
2021/09/19 00:21:27;;;;;;;;;;;;;;;;;;2089510;28;19967;-57
2021/09/19 00:22:28;;;;;;;;;;;;;;;;;;2090879;28;19973;-58
2021/09/19 00:23:29;;;;;;;;;;;;;;;;;;2090089;28;20304;-58
2021/09/19 00:24:29;;;;;;;;;;;;;;;;;;2085191;28;19928;-58
2021/09/19 00:25:30;;;;;;;;;;;;;;;;;;2082635;28;19924;-58
2021/09/19 00:26:31;;;;;;;;;;;;;;;;;;2086051;28;19920;-58
2021/09/19 00:27:32;;;;;;;;;;;;;;;;;;2084606;28;19925;-58
2021/09/19 00:28:33;;;;;;;;;;;;;;;;;;2082766;28;19931;-57
2021/09/19 00:29:34;;;;;;;;;;;;;;;;;;2086318;28;19956;-57
2021/09/19 00:30:35;;;;;;;;;;;;;;;;;;2090031;28;19928;-57
2021/09/19 00:31:36;;;;;;;;;;;;;;;;;;2090534;28;20381;-58
2021/09/19 00:32:36;;;;;;;;;;;;;;;;;;2088482;28;20059;-57
2021/09/19 00:33:37;;;;;;;;;;;;;;;;;;2090706;28;19971;-59
2021/09/19 00:34:38;;;;;;;;;;;;;;;;;;2091004;28;20278;-57
2021/09/19 00:35:39;;;;;;;;;;;;;;;;;;2089458;28;20348;-58
2021/09/19 00:36:40;;;;;;;;;;;;;;;;;;2082818;28;19921;-58
2021/09/19 00:37:41;;;;;;;;;;;;;;;;;;2082508;28;19925;-57
2021/09/19 00:38:41;;;;;;;;;;;;;;;;;;2087243;28;20385;-58
2021/09/19 00:39:42;;;;;;;;;;;;;;;;;;2090754;28;20373;-58
2021/09/19 00:40:43;;;;;;;;;;;;;;;;;;2090826;28;19920;-57
2021/09/19 00:41:44;;;;;;;;;;;;;;;;;;2088480;28;19925;-58
2021/09/19 00:42:44;;;;;;;;;;;;;;;;;;2090734;28;19925;-58
2021/09/19 00:43:45;;;;;;;;;;;;;;;;;;2090861;28;19927;-58
2021/09/19 00:44:46;;;;;;;;;;;;;;;;;;2088455;28;20329;-58
2021/09/19 00:45:47;;;;;;;;;;;;;;;;;;2090757;28;20289;-57
2021/09/19 00:46:48;;;;;;;;;;;;;;;;;;2090584;28;19928;-58
2021/09/19 00:47:49;;;;;;;;;;;;;;;;;;2088750;28;19928;-58
2021/09/19 00:48:49;;;;;;;;;;;;;;;;;;2090658;28;19920;-58
2021/09/19 00:49:50;;;;;;;;;;;;;;;;;;2090522;28;19924;-58
2021/09/19 00:50:51;;;;;;;;;;;;;;;;;;2083856;28;20366;-58
2021/09/19 00:51:52;;;;;;;;;;;;;;;;;;2082392;28;20374;-57
2021/09/19 00:52:53;;;;;;;;;;;;;;;;;;2085334;28;19920;-58
2021/09/19 00:53:55;;;;;;;;;;;;;;;;;;2089257;28;19920;-58
2021/09/19 00:54:56;;;;;;;;;;;;;;;;;;2090703;28;20000;-58
2021/09/19 00:55:57;;;;;;;;;;;;;;;;;;2089587;28;19921;-57
2021/09/19 00:56:58;;;;;;;;;;;;;;;;;;2084310;28;19928;-59
2021/09/19 00:57:59;;;;;;;;;;;;;;;;;;2082403;28;19983;-59
2021/09/19 00:58:59;;;;;;;;;;;;;;;;;;2086146;28;19932;-59
2021/09/19 01:00:00;;;;;;;;;;;;;;;;;;2090138;28;19975;-59
2021/09/19 01:01:01;;;;;;;;;;;;;;;;;;2090699;28;19924;-60
2021/09/19 01:02:02;;;;;;;;;;;;;;;;;;2088470;28;19920;-60
2021/09/19 01:03:03;;;;;;;;;;;;;;;;;;2090423;28;19960;-60
2021/09/19 01:04:04;;;;;;;;;;;;;;;;;;2090754;28;19920;-60
2021/09/19 01:05:05;;;;;;;;;;;;;;;;;;2088384;28;20002;-60
2021/09/19 01:06:06;;;;;;;;;;;;;;;;;;2090389;28;19920;-61
2021/09/19 01:07:06;;;;;;;;;;;;;;;;;;2090759;28;19928;-61
2021/09/19 01:08:07;;;;;;;;;;;;;;;;;;2088410;28;20489;-61
2021/09/19 01:09:08;;;;;;;;;;;;;;;;;;2090640;28;19927;-61
2021/09/19 01:10:09;;;;;;;;;;;;;;;;;;2090531;28;19971;-63
2021/09/19 01:11:09;;;;;;;;;;;;;;;;;;2088218;28;19924;-62
2021/09/19 01:12:10;;;;;;;;;;;;;;;;;;2082225;28;19929;-61
2021/09/19 01:13:11;;;;;;;;;;;;;;;;;;2081958;28;20294;-61
2021/09/19 01:14:12;;;;;;;;;;;;;;;;;;2088609;28;20382;-60
2021/09/19 01:15:13;;;;;;;;;;;;;;;;;;2090653;28;20061;-62
2021/09/19 01:16:14;;;;;;;;;;;;;;;;;;2090179;28;20003;-60
2021/09/19 01:17:14;;;;;;;;;;;;;;;;;;2088735;28;19963;-61
2021/09/19 01:18:17;;;;;;;;;;;;;;;;;;2090482;28;19921;-62
2021/09/19 01:19:18;;;;;;;;;;;;;;;;;;2090149;28;19942;-62
2021/09/19 01:20:19;;;;;;;;;;;;;;;;;;2088118;28;19920;-62
2021/09/19 01:21:19;;;;;;;;;;;;;;;;;;2090680;28;19920;-62
2021/09/19 01:22:20;;;;;;;;;;;;;;;;;;2089987;28;19931;-63
2021/09/19 01:23:21;;;;;;;;;;;;;;;;;;2086136;28;19931;-63
2021/09/19 01:24:25;;;;;;;;;;;;;;;;;;2082373;28;19975;-63
2021/09/19 01:25:26;;;;;;;;;;;;;;;;;;2084695;28;20007;-63
2021/09/19 01:26:27;;;;;;;;;;;;;;;;;;2085510;28;20374;-63
2021/09/19 01:27:27;;;;;;;;;;;;;;;;;;2082164;28;19928;-64
2021/09/19 01:28:28;;;;;;;;;;;;;;;;;;2087617;28;19928;-63
2021/09/19 01:29:29;;;;;;;;;;;;;;;;;;2089109;28;19925;-63
2021/09/19 01:30:30;;;;;;;;;;;;;;;;;;2090314;28;19925;-63
2021/09/19 01:31:31;;;;;;;;;;;;;;;;;;2089512;28;19924;-63
2021/09/19 01:32:32;;;;;;;;;;;;;;;;;;2088936;28;19924;-63
2021/09/19 01:33:32;;;;;;;;;;;;;;;;;;2090453;28;19934;-63
2021/09/19 01:34:33;;;;;;;;;;;;;;;;;;2089117;28;19932;-63
2021/09/19 01:35:34;;;;;;;;;;;;;;;;;;2089637;28;19928;-61
2021/09/19 01:36:36;;;;;;;;;;;;;;;;;;2090337;28;19927;-61
2021/09/19 01:37:37;;;;;;;;;;;;;;;;;;2088242;28;20255;-61
2021/09/19 01:38:38;;;;;;;;;;;;;;;;;;2090256;28;20282;-61
2021/09/19 01:39:39;;;;;;;;;;;;;;;;;;2090349;28;19921;-61
2021/09/19 01:40:40;;;;;;;;;;;;;;;;;;2088159;28;19974;-61
2021/09/19 01:41:40;;;;;;;;;;;;;;;;;;2090401;28;19935;-61
2021/09/19 01:42:41;;;;;;;;;;;;;;;;;;2090333;28;19921;-61
2021/09/19 01:43:42;;;;;;;;;;;;;;;;;;2088870;28;19928;-61
2021/09/19 01:44:43;;;;;;;;;;;;;;;;;;2082138;28;20337;-61
2021/09/19 01:45:44;;;;;;;;;;;;;;;;;;2081991;28;20079;-61
2021/09/19 01:46:45;;;;;;;;;;;;;;;;;;2087546;28;19920;-61
2021/09/19 01:47:46;;;;;;;;;;;;;;;;;;2090303;28;19925;-61
2021/09/19 01:48:46;;;;;;;;;;;;;;;;;;2090379;28;19927;-61
2021/09/19 01:49:47;;;;;;;;;;;;;;;;;;2087119;28;19921;-61
2021/09/19 01:50:48;;;;;;;;;;;;;;;;;;2085514;28;19927;-61
2021/09/19 01:51:49;;;;;;;;;;;;;;;;;;2082231;28;19925;-60
2021/09/19 01:52:50;;;;;;;;;;;;;;;;;;2088340;28;19921;-61
2021/09/19 01:53:51;;;;;;;;;;;;;;;;;;2090344;28;19925;-60
2021/09/19 01:54:51;;;;;;;;;;;;;;;;;;2089798;28;20432;-60
2021/09/19 01:55:52;;;;;;;;;;;;;;;;;;2086716;28;19921;-61
2021/09/19 01:56:53;;;;;;;;;;;;;;;;;;2082016;28;19921;-61
2021/09/19 01:57:54;;;;;;;;;;;;;;;;;;2083423;28;19921;-61
2021/09/19 01:58:55;;;;;;;;;;;;;;;;;;2086301;28;20019;-61
2021/09/19 01:59:56;;;;;;;;;;;;;;;;;;2081981;28;19944;-60
2021/09/19 02:00:57;;;;;;;;;;;;;;;;;;2083806;28;19925;-60
2021/09/19 02:01:57;;;;;;;;;;;;;;;;;;2084881;28;19920;-60
2021/09/19 02:02:59;;;;;;;;;;;;;;;;;;2081991;28;19928;-60
2021/09/19 02:04:00;;;;;;;;;;;;;;;;;;2084421;28;19928;-60
2021/09/19 02:05:00;;;;;;;;;;;;;;;;;;2088742;28;19924;-60
2021/09/19 02:06:01;;;;;;;;;;;;;;;;;;2090172;28;19925;-60
2021/09/19 02:07:02;;;;;;;;;;;;;;;;;;2089453;28;19924;-61
2021/09/19 02:08:03;;;;;;;;;;;;;;;;;;2088853;28;19927;-60
2021/09/19 02:09:04;;;;;;;;;;;;;;;;;;2090224;28;19920;-60
2021/09/19 02:10:04;;;;;;;;;;;;;;;;;;2089273;28;19927;-60
2021/09/19 02:11:05;;;;;;;;;;;;;;;;;;2084172;28;19948;-60
2021/09/19 02:12:06;;;;;;;;;;;;;;;;;;2081956;28;19928;-60
2021/09/19 02:13:07;;;;;;;;;;;;;;;;;;2085575;28;20275;-60
2021/09/19 02:14:08;;;;;;;;;;;;;;;;;;2089443;28;19921;-60
2021/09/19 02:15:08;;;;;;;;;;;;;;;;;;2090001;28;19920;-61
2021/09/19 02:16:09;;;;;;;;;;;;;;;;;;2088231;28;19931;-61
2021/09/19 02:17:10;;;;;;;;;;;;;;;;;;2089849;28;20136;-62
2021/09/19 02:18:11;;;;;;;;;;;;;;;;;;2090172;28;19925;-60
2021/09/19 02:19:12;;;;;;;;;;;;;;;;;;2087952;28;19943;-60
2021/09/19 02:20:13;;;;;;;;;;;;;;;;;;2090144;28;19921;-61
2021/09/19 02:21:13;;;;;;;;;;;;;;;;;;2090203;28;19921;-61
2021/09/19 02:22:14;;;;;;;;;;;;;;;;;;2088915;28;19990;-61
2021/09/19 02:23:15;;;;;;;;;;;;;;;;;;2081880;28;19925;-60
2021/09/19 02:24:16;;;;;;;;;;;;;;;;;;2084428;28;19932;-61
2021/09/19 02:25:17;;;;;;;;;;;;;;;;;;2087892;28;20608;-61
2021/09/19 02:26:17;;;;;;;;;;;;;;;;;;2090044;28;20374;-61
2021/09/19 02:27:20;;;;;;;;;;;;;;;;;;2090187;28;19921;-61
2021/09/19 02:28:21;;;;;;;;;;;;;;;;;;2086795;28;20306;-61
2021/09/19 02:29:22;;;;;;;;;;;;;;;;;;2090183;28;19927;-60
2021/09/19 02:30:23;;;;;;;;;;;;;;;;;;2089747;28;20336;-45
2021/09/19 02:31:23;;;;;;;;;;;;;;;;;;2087728;28;20278;-45
2021/09/19 02:32:24;;;;;;;;;;;;;;;;;;2089425;28;20374;-45
2021/09/19 02:33:25;;;;;;;;;;;;;;;;;;2089639;28;19928;-47
2021/09/19 02:34:26;;;;;;;;;;;;;;;;;;2088299;28;19921;-45
2021/09/19 02:35:27;;;;;;;;;;;;;;;;;;2090013;28;19959;-45
2021/09/19 02:36:28;;;;;;;;;;;;;;;;;;2089367;28;19921;-45
2021/09/19 02:37:29;;;;;;;;;;;;;;;;;;2086061;28;19921;-45
2021/09/19 02:38:29;;;;;;;;;;;;;;;;;;2081797;28;19940;-45
2021/09/19 02:39:30;;;;;;;;;;;;;;;;;;2083500;28;20638;-45
2021/09/19 02:40:31;;;;;;;;;;;;;;;;;;2084775;28;19924;-45
2021/09/19 02:41:32;;;;;;;;;;;;;;;;;;2081859;28;19948;-45
2021/09/19 02:42:33;;;;;;;;;;;;;;;;;;2084022;28;19927;-44
2021/09/19 02:43:33;;;;;;;;;;;;;;;;;;2088526;28;20274;-45
2021/09/19 02:44:34;;;;;;;;;;;;;;;;;;2089991;28;19921;-45
2021/09/19 02:45:35;;;;;;;;;;;;;;;;;;2089089;28;19982;-45
2021/09/19 02:46:36;;;;;;;;;;;;;;;;;;2088592;28;19931;-45
2021/09/19 02:47:37;;;;;;;;;;;;;;;;;;2089963;28;19944;-45
2021/09/19 02:48:38;;;;;;;;;;;;;;;;;;2089010;28;19974;-44
2021/09/19 02:49:39;;;;;;;;;;;;;;;;;;2088685;28;19921;-44
2021/09/19 02:50:40;;;;;;;;;;;;;;;;;;2088419;28;19927;-44
2021/09/19 02:51:41;;;;;;;;;;;;;;;;;;2088631;28;19925;-44
2021/09/19 02:52:41;;;;;;;;;;;;;;;;;;2088938;28;20439;-44
2021/09/19 02:53:42;;;;;;;;;;;;;;;;;;2090061;28;19924;-44
2021/09/19 02:54:43;;;;;;;;;;;;;;;;;;2087999;28;20294;-44
2021/09/19 02:55:44;;;;;;;;;;;;;;;;;;2089364;28;19932;-44
2021/09/19 02:56:44;;;;;;;;;;;;;;;;;;2090061;28;19931;-44
2021/09/19 02:57:45;;;;;;;;;;;;;;;;;;2087709;28;20290;-44
2021/09/19 02:58:46;;;;;;;;;;;;;;;;;;2089977;28;19974;-44
2021/09/19 02:59:47;;;;;;;;;;;;;;;;;;2089875;28;19928;-44
2021/09/19 03:00:48;;;;;;;;;;;;;;;;;;2087546;28;19921;-44
2021/09/19 03:01:49;;;;;;;;;;;;;;;;;;2089832;28;19950;-44
2021/09/19 03:02:49;;;;;;;;;;;;;;;;;;2090000;28;19974;-45
2021/09/19 03:03:51;;;;;;;;;;;;;;;;;;2087454;28;20007;-45
2021/09/19 03:04:51;;;;;;;;;;;;;;;;;;2090002;28;19921;-45
2021/09/19 03:05:52;;;;;;;;;;;;;;;;;;2089935;28;20274;-45
2021/09/19 03:06:53;;;;;;;;;;;;;;;;;;2087412;28;19966;-45
2021/09/19 03:07:54;;;;;;;;;;;;;;;;;;2081560;28;19921;-45
2021/09/19 03:08:55;;;;;;;;;;;;;;;;;;2081490;28;19955;-45
2021/09/19 03:09:56;;;;;;;;;;;;;;;;;;2087994;28;19972;-45
2021/09/19 03:10:56;;;;;;;;;;;;;;;;;;2089827;28;20443;-45
2021/09/19 03:11:57;;;;;;;;;;;;;;;;;;2089478;28;20366;-45
2021/09/19 03:12:58;;;;;;;;;;;;;;;;;;2087794;28;19921;-45
2021/09/19 03:13:59;;;;;;;;;;;;;;;;;;2089948;28;19920;-45
2021/09/19 03:14:59;;;;;;;;;;;;;;;;;;2089231;28;20440;-45
2021/09/19 03:16:00;;;;;;;;;;;;;;;;;;2087885;28;19924;-45
2021/09/19 03:17:01;;;;;;;;;;;;;;;;;;2089856;28;20019;-45
2021/09/19 03:18:02;;;;;;;;;;;;;;;;;;2089195;28;20263;-45
2021/09/19 03:19:03;;;;;;;;;;;;;;;;;;2085556;28;19921;-45
2021/09/19 03:20:04;;;;;;;;;;;;;;;;;;2081533;28;19927;-45
2021/09/19 03:21:05;;;;;;;;;;;;;;;;;;2087745;28;19928;-45
2021/09/19 03:22:05;;;;;;;;;;;;;;;;;;2088183;28;19943;-45
2021/09/19 03:23:06;;;;;;;;;;;;;;;;;;2089775;28;19974;-45
2021/09/19 03:24:07;;;;;;;;;;;;;;;;;;2089004;28;19920;-45
2021/09/19 03:25:08;;;;;;;;;;;;;;;;;;2088138;28;19921;-45
2021/09/19 03:26:09;;;;;;;;;;;;;;;;;;2089876;28;20087;-45
2021/09/19 03:27:09;;;;;;;;;;;;;;;;;;2088794;28;19929;-45
2021/09/19 03:28:10;;;;;;;;;;;;;;;;;;2082034;28;19928;-45
2021/09/19 03:29:11;;;;;;;;;;;;;;;;;;2081444;28;19932;-45
2021/09/19 03:30:12;;;;;;;;;;;;;;;;;;2085909;28;19928;-45
2021/09/19 03:31:13;;;;;;;;;;;;;;;;;;2089532;28;20075;-45
2021/09/19 03:32:14;;;;;;;;;;;;;;;;;;2089818;28;20054;-44
2021/09/19 03:33:14;;;;;;;;;;;;;;;;;;2087913;28;19921;-44
2021/09/19 03:34:15;;;;;;;;;;;;;;;;;;2081567;28;19921;-44
2021/09/19 03:35:16;;;;;;;;;;;;;;;;;;2081387;28;19967;-44
2021/09/19 03:36:17;;;;;;;;;;;;;;;;;;2087019;28;20355;-44
2021/09/19 03:37:18;;;;;;;;;;;;;;;;;;2089682;28;19921;-44
2021/09/19 03:38:19;;;;;;;;;;;;;;;;;;2089461;28;20366;-44
2021/09/19 03:39:19;;;;;;;;;;;;;;;;;;2087932;28;19928;-44
2021/09/19 03:40:20;;;;;;;;;;;;;;;;;;2089533;28;19921;-45
2021/09/19 03:41:21;;;;;;;;;;;;;;;;;;2089248;28;19928;-44
2021/09/19 03:42:22;;;;;;;;;;;;;;;;;;2087616;28;19929;-44
2021/09/19 03:43:22;;;;;;;;;;;;;;;;;;2089356;28;19920;-44
2021/09/19 03:44:23;;;;;;;;;;;;;;;;;;2089155;28;19921;-44
2021/09/19 03:45:28;;;;;;;;;;;;;;;;;;2087892;28;19927;-44
2021/09/19 03:46:29;;;;;;;;;;;;;;;;;;2089692;28;20015;-44
2021/09/19 03:47:30;;;;;;;;;;;;;;;;;;2088841;28;19920;-45
2021/09/19 03:48:31;;;;;;;;;;;;;;;;;;2088109;28;20444;-44
2021/09/19 03:49:31;;;;;;;;;;;;;;;;;;2089577;28;19924;-44
2021/09/19 03:50:32;;;;;;;;;;;;;;;;;;2086803;28;19921;-44
2021/09/19 03:51:33;;;;;;;;;;;;;;;;;;2084530;28;19921;-45
2021/09/19 03:52:34;;;;;;;;;;;;;;;;;;2081446;28;20378;-45
2021/09/19 03:53:35;;;;;;;;;;;;;;;;;;2084078;28;19921;-45
2021/09/19 03:54:36;;;;;;;;;;;;;;;;;;2083194;28;19971;-45
2021/09/19 03:55:37;;;;;;;;;;;;;;;;;;2081369;28;19921;-45
2021/09/19 03:56:37;;;;;;;;;;;;;;;;;;2084886;28;20359;-45
2021/09/19 03:57:38;;;;;;;;;;;;;;;;;;2088232;28;20014;-44
2021/09/19 03:58:39;;;;;;;;;;;;;;;;;;2089561;28;20286;-45
2021/09/19 03:59:40;;;;;;;;;;;;;;;;;;2088304;28;19921;-45
2021/09/19 04:00:41;;;;;;;;;;;;;;;;;;2088691;28;19921;-45
2021/09/19 04:01:42;;;;;;;;;;;;;;;;;;2089584;28;19921;-45
2021/09/19 04:02:43;;;;;;;;;;;;;;;;;;2087442;28;20103;-45
2021/09/19 04:03:44;;;;;;;;;;;;;;;;;;2088474;28;19925;-45
2021/09/19 04:04:45;;;;;;;;;;;;;;;;;;2089537;28;20335;-45
2021/09/19 04:05:45;;;;;;;;;;;;;;;;;;2086700;28;19936;-45
2021/09/19 04:06:48;;;;;;;;;;;;;;;;;;2089387;28;19952;-45
2021/09/19 04:07:49;;;;;;;;;;;;;;;;;;2089673;28;19921;-44
2021/09/19 04:08:50;;;;;;;;;;;;;;;;;;2087932;28;19928;-44
2021/09/19 04:09:51;;;;;;;;;;;;;;;;;;2081337;28;19936;-43
2021/09/19 04:10:52;;;;;;;;;;;;;;;;;;2081343;28;20393;-44
2021/09/19 04:11:55;;;;;;;;;;;;;;;;;;2084927;28;19924;-44
2021/09/19 04:12:56;;;;;;;;;;;;;;;;;;2081332;28;19956;-43
2021/09/19 04:13:56;;;;;;;;;;;;;;;;;;2083086;28;19921;-44
2021/09/19 04:14:57;;;;;;;;;;;;;;;;;;2087969;28;20285;-43
2021/09/19 04:16:00;;;;;;;;;;;;;;;;;;2089295;28;20050;-44
2021/09/19 04:17:01;;;;;;;;;;;;;;;;;;2088327;28;20427;-44
2021/09/19 04:18:01;;;;;;;;;;;;;;;;;;2089094;28;19924;-43
2021/09/19 04:19:03;;;;;;;;;;;;;;;;;;2089418;28;19921;-43
2021/09/19 04:20:04;;;;;;;;;;;;;;;;;;2088646;28;19928;-43
2021/09/19 04:21:05;;;;;;;;;;;;;;;;;;2087914;28;19920;-43
2021/09/19 04:22:05;;;;;;;;;;;;;;;;;;2089440;28;20362;-43
2021/09/19 04:23:06;;;;;;;;;;;;;;;;;;2088325;28;19921;-43
2021/09/19 04:24:07;;;;;;;;;;;;;;;;;;2088498;28;19920;-43
2021/09/19 04:25:08;;;;;;;;;;;;;;;;;;2089382;28;19928;-44
2021/09/19 04:26:09;;;;;;;;;;;;;;;;;;2088502;28;19927;-44
2021/09/19 04:27:10;;;;;;;;;;;;;;;;;;2082347;28;20371;-44
2021/09/19 04:28:10;;;;;;;;;;;;;;;;;;2081280;28;19921;-44
2021/09/19 04:29:11;;;;;;;;;;;;;;;;;;2085135;28;19952;-44
2021/09/19 04:30:12;;;;;;;;;;;;;;;;;;2089266;28;20281;-44
2021/09/19 04:31:17;;;;;;;;;;;;;;;;;;2089535;28;19921;-44
2021/09/19 04:32:18;;;;;;;;;;;;;;;;;;2086688;28;19925;-44
2021/09/19 04:33:19;;;;;;;;;;;;;;;;;;2081205;28;20339;-44
2021/09/19 04:34:20;;;;;;;;;;;;;;;;;;2081092;28;19971;-44
2021/09/19 04:35:21;;;;;;;;;;;;;;;;;;2086805;28;19932;-44
2021/09/19 04:36:22;;;;;;;;;;;;;;;;;;2081182;28;19982;-44
2021/09/19 04:37:23;;;;;;;;;;;;;;;;;;2081015;28;20279;-44
2021/09/19 04:38:23;;;;;;;;;;;;;;;;;;2084833;28;19948;-44
2021/09/19 04:39:24;;;;;;;;;;;;;;;;;;2081128;28;19921;-44
2021/09/19 04:40:25;;;;;;;;;;;;;;;;;;2083015;28;19921;-44
2021/09/19 04:41:26;;;;;;;;;;;;;;;;;;2087794;28;19921;-44
2021/09/19 04:42:27;;;;;;;;;;;;;;;;;;2089431;28;19921;-44
2021/09/19 04:43:28;;;;;;;;;;;;;;;;;;2088427;28;20020;-45
2021/09/19 04:44:29;;;;;;;;;;;;;;;;;;2088169;28;19928;-44
2021/09/19 04:45:29;;;;;;;;;;;;;;;;;;2089352;28;19986;-44
2021/09/19 04:46:30;;;;;;;;;;;;;;;;;;2088569;28;19928;-44
2021/09/19 04:47:31;;;;;;;;;;;;;;;;;;2087903;28;19924;-44
2021/09/19 04:48:32;;;;;;;;;;;;;;;;;;2089426;28;20321;-45
2021/09/19 04:49:33;;;;;;;;;;;;;;;;;;2088319;28;19921;-45
2021/09/19 04:50:34;;;;;;;;;;;;;;;;;;2081254;28;20325;-45
2021/09/19 04:51:34;;;;;;;;;;;;;;;;;;2081066;28;19942;-44
2021/09/19 04:52:35;;;;;;;;;;;;;;;;;;2084429;28;19928;-44
2021/09/19 04:53:36;;;;;;;;;;;;;;;;;;2089037;28;20282;-45
2021/09/19 04:54:37;;;;;;;;;;;;;;;;;;2089328;28;20370;-45
2021/09/19 04:55:38;;;;;;;;;;;;;;;;;;2089352;28;19920;-45
2021/09/19 04:56:38;;;;;;;;;;;;;;;;;;2083084;28;19971;-44
2021/09/19 04:57:39;;;;;;;;;;;;;;;;;;2082526;28;19974;-44
2021/09/19 04:58:40;;;;;;;;;;;;;;;;;;2086908;28;20022;-45
2021/09/19 04:59:41;;;;;;;;;;;;;;;;;;2090651;28;19978;-45
2021/09/19 05:00:42;;;;;;;;;;;;;;;;;;2090576;28;19921;-45
2021/09/19 05:01:43;;;;;;;;;;;;;;;;;;2088826;28;19932;-44
2021/09/19 05:02:44;;;;;;;;;;;;;;;;;;2082513;28;20405;-44
2021/09/19 05:03:45;;;;;;;;;;;;;;;;;;2082288;28;19932;-44
2021/09/19 05:04:46;;;;;;;;;;;;;;;;;;2088196;28;19921;-44
2021/09/19 05:05:47;;;;;;;;;;;;;;;;;;2090545;28;19924;-45
2021/09/19 05:06:47;;;;;;;;;;;;;;;;;;2090300;28;19921;-44
2021/09/19 05:07:48;;;;;;;;;;;;;;;;;;2088733;28;20328;-45
2021/09/19 05:08:49;;;;;;;;;;;;;;;;;;2090731;28;20344;-44
2021/09/19 05:09:50;;;;;;;;;;;;;;;;;;2090199;28;19927;-45
2021/09/19 05:10:51;;;;;;;;;;;;;;;;;;2087426;28;20282;-45
2021/09/19 05:11:53;;;;;;;;;;;;;;;;;;2082399;28;19921;-44
2021/09/19 05:12:54;;;;;;;;;;;;;;;;;;2083215;28;20374;-44
2021/09/19 05:13:55;;;;;;;;;;;;;;;;;;2088856;28;19921;-44
2021/09/19 05:14:55;;;;;;;;;;;;;;;;;;2090586;28;19921;-45
2021/09/19 05:15:56;;;;;;;;;;;;;;;;;;2089890;28;19943;-45
2021/09/19 05:16:57;;;;;;;;;;;;;;;;;;2089041;28;19920;-44
2021/09/19 05:17:58;;;;;;;;;;;;;;;;;;2090517;28;19921;-44
2021/09/19 05:18:59;;;;;;;;;;;;;;;;;;2089794;28;19924;-44
2021/09/19 05:20:00;;;;;;;;;;;;;;;;;;2085695;28;19921;-45
2021/09/19 05:21:00;;;;;;;;;;;;;;;;;;2082227;28;19932;-45
2021/09/19 05:22:01;;;;;;;;;;;;;;;;;;2084912;28;19921;-45
2021/09/19 05:23:02;;;;;;;;;;;;;;;;;;2088082;28;19927;-44
2021/09/19 05:24:03;;;;;;;;;;;;;;;;;;2090436;28;19927;-45
2021/09/19 05:25:03;;;;;;;;;;;;;;;;;;2089704;28;20340;-44
2021/09/19 05:26:04;;;;;;;;;;;;;;;;;;2084467;28;20292;-45
2021/09/19 05:27:05;;;;;;;;;;;;;;;;;;2082208;28;19921;-44
2021/09/19 05:28:06;;;;;;;;;;;;;;;;;;2085752;28;19943;-44
2021/09/19 05:29:07;;;;;;;;;;;;;;;;;;2084063;28;20359;-45
2021/09/19 05:30:08;;;;;;;;;;;;;;;;;;2082318;28;19967;-44
2021/09/19 05:31:09;;;;;;;;;;;;;;;;;;2085862;28;19921;-44
2021/09/19 05:32:09;;;;;;;;;;;;;;;;;;2090145;28;19924;-45
2021/09/19 05:33:10;;;;;;;;;;;;;;;;;;2090395;28;19944;-44
2021/09/19 05:34:11;;;;;;;;;;;;;;;;;;2088301;28;19921;-45
2021/09/19 05:35:12;;;;;;;;;;;;;;;;;;2090316;28;20015;-44
2021/09/19 05:36:12;;;;;;;;;;;;;;;;;;2090478;28;20362;-44
2021/09/19 05:37:13;;;;;;;;;;;;;;;;;;2088270;28;20377;-44
2021/09/19 05:38:14;;;;;;;;;;;;;;;;;;2090410;28;19927;-44
2021/09/19 05:39:15;;;;;;;;;;;;;;;;;;2090519;28;19920;-45
2021/09/19 05:40:16;;;;;;;;;;;;;;;;;;2087966;28;19967;-44
2021/09/19 05:41:17;;;;;;;;;;;;;;;;;;2090446;28;20332;-44
2021/09/19 05:42:18;;;;;;;;;;;;;;;;;;2090394;28;19920;-44
2021/09/19 05:43:18;;;;;;;;;;;;;;;;;;2088026;28;19924;-44
2021/09/19 05:44:19;;;;;;;;;;;;;;;;;;2082094;28;19921;-45
2021/09/19 05:45:20;;;;;;;;;;;;;;;;;;2081742;28;19928;-44
2021/09/19 05:46:21;;;;;;;;;;;;;;;;;;2088413;28;19921;-44
2021/09/19 05:47:22;;;;;;;;;;;;;;;;;;2090528;28;19928;-45
2021/09/19 05:48:22;;;;;;;;;;;;;;;;;;2090010;28;20301;-44
2021/09/19 05:49:23;;;;;;;;;;;;;;;;;;2088397;28;19920;-45
2021/09/19 05:50:24;;;;;;;;;;;;;;;;;;2088558;28;19920;-44
2021/09/19 05:51:25;;;;;;;;;;;;;;;;;;2083099;28;19921;-44
2021/09/19 05:52:26;;;;;;;;;;;;;;;;;;2085806;28;20011;-45
2021/09/19 05:53:27;;;;;;;;;;;;;;;;;;2082139;28;19921;-44
2021/09/19 05:54:27;;;;;;;;;;;;;;;;;;2083463;28;19921;-45
2021/09/19 05:55:28;;;;;;;;;;;;;;;;;;2088425;28;19927;-45
2021/09/19 05:56:29;;;;;;;;;;;;;;;;;;2090360;28;19920;-45
2021/09/19 05:57:30;;;;;;;;;;;;;;;;;;2089496;28;19946;-44
2021/09/19 05:58:31;;;;;;;;;;;;;;;;;;2088895;28;19920;-44
2021/09/19 05:59:31;;;;;;;;;;;;;;;;;;2090262;28;19976;-45
2021/09/19 06:00:32;;;;;;;;;;;;;;;;;;2089516;28;19936;-44
2021/09/19 06:01:33;;;;;;;;;;;;;;;;;;2088833;28;19970;-44
2021/09/19 06:02:34;;;;;;;;;;;;;;;;;;2090277;28;19990;-45
2021/09/19 06:03:37;;;;;;;;;;;;;;;;;;2089339;28;19921;-45
2021/09/19 06:04:39;;;;;;;;;;;;;;;;;;2084239;28;19921;-44
2021/09/19 06:05:39;;;;;;;;;;;;;;;;;;2081927;28;19928;-44
2021/09/19 06:06:40;;;;;;;;;;;;;;;;;;2085640;28;19924;-44
2021/09/19 06:07:41;;;;;;;;;;;;;;;;;;2089194;28;19925;-44
2021/09/19 06:08:42;;;;;;;;;;;;;;;;;;2090204;28;19925;-44
2021/09/19 06:09:42;;;;;;;;;;;;;;;;;;2088985;28;19925;-44
2021/09/19 06:10:43;;;;;;;;;;;;;;;;;;2083047;28;19921;-44
2021/09/19 06:11:44;;;;;;;;;;;;;;;;;;2081988;28;19925;-44
2021/09/19 06:12:45;;;;;;;;;;;;;;;;;;2086703;28;19927;-44
2021/09/19 06:13:46;;;;;;;;;;;;;;;;;;2082644;28;19921;-44
2021/09/19 06:14:47;;;;;;;;;;;;;;;;;;2082176;28;20296;-45
2021/09/19 06:15:47;;;;;;;;;;;;;;;;;;2087131;28;19921;-45
2021/09/19 06:16:48;;;;;;;;;;;;;;;;;;2082170;28;19928;-44
2021/09/19 06:17:49;;;;;;;;;;;;;;;;;;2081846;28;19921;-45
2021/09/19 06:18:50;;;;;;;;;;;;;;;;;;2087500;28;19921;-45
2021/09/19 06:19:51;;;;;;;;;;;;;;;;;;2081965;28;19921;-45
2021/09/19 06:20:52;;;;;;;;;;;;;;;;;;2081905;28;20357;-44
2021/09/19 06:21:52;;;;;;;;;;;;;;;;;;2087392;28;20358;-45
2021/09/19 06:22:53;;;;;;;;;;;;;;;;;;2090219;28;20358;-45
2021/09/19 06:23:54;;;;;;;;;;;;;;;;;;2089857;28;19920;-45
2021/09/19 06:24:55;;;;;;;;;;;;;;;;;;2087706;28;20294;-45
2021/09/19 06:25:56;;;;;;;;;;;;;;;;;;2081975;28;19967;-45
2021/09/19 06:26:56;;;;;;;;;;;;;;;;;;2082165;28;19928;-45
2021/09/19 06:27:57;;;;;;;;;;;;;;;;;;2088231;28;19921;-45
2021/09/19 06:28:58;;;;;;;;;;;;;;;;;;2090142;28;19975;-45
2021/09/19 06:29:59;;;;;;;;;;;;;;;;;;2089700;28;19920;-45
2021/09/19 06:31:00;;;;;;;;;;;;;;;;;;2087036;28;19929;-45
2021/09/19 06:32:01;;;;;;;;;;;;;;;;;;2090117;28;19921;-45
2021/09/19 06:33:01;;;;;;;;;;;;;;;;;;2089362;28;19974;-45
2021/09/19 06:34:02;;;;;;;;;;;;;;;;;;2085962;28;19964;-45
2021/09/19 06:35:03;;;;;;;;;;;;;;;;;;2081917;28;19927;-45
2021/09/19 06:36:04;;;;;;;;;;;;;;;;;;2083364;28;19929;-45
2021/09/19 06:37:05;;;;;;;;;;;;;;;;;;2088604;28;19920;-45
2021/09/19 06:38:06;;;;;;;;;;;;;;;;;;2090035;28;20301;-45
2021/09/19 06:39:06;;;;;;;;;;;;;;;;;;2089538;28;19924;-60
2021/09/19 06:40:07;;;;;;;;;;;;;;;;;;2084931;28;19921;-60
2021/09/19 06:41:08;;;;;;;;;;;;;;;;;;2081841;28;19920;-60
2021/09/19 06:42:09;;;;;;;;;;;;;;;;;;2084864;28;19920;-61
2021/09/19 06:43:09;;;;;;;;;;;;;;;;;;2084675;28;19925;-61
2021/09/19 06:44:10;;;;;;;;;;;;;;;;;;2081834;28;19943;-60
2021/09/19 06:45:11;;;;;;;;;;;;;;;;;;2085240;28;19925;-60
2021/09/19 06:46:12;;;;;;;;;;;;;;;;;;2086465;28;19920;-61
2021/09/19 06:47:16;;;;;;;;;;;;;;;;;;2089961;28;19921;-61
2021/09/19 06:48:16;;;;;;;;;;;;;;;;;;2089095;28;19929;-61
2021/09/19 06:49:17;;;;;;;;;;;;;;;;;;2082967;28;19921;-60
2021/09/19 06:50:18;;;;;;;;;;;;;;;;;;2081765;28;19921;-61
2021/09/19 06:51:19;;;;;;;;;;;;;;;;;;2084987;28;19943;-60
2021/09/19 06:52:19;;;;;;;;;;;;;;;;;;2082290;28;19925;-61
2021/09/19 06:53:20;;;;;;;;;;;;;;;;;;2081693;28;19964;-61
2021/09/19 06:54:21;;;;;;;;;;;;;;;;;;2087193;28;19920;-60
2021/09/19 06:55:22;;;;;;;;;;;;;;;;;;2081850;28;19925;-61